Time;durP1;ratioP1;P1;durP2;ratioP2;P2;SDS_P1;SDS_P2;PMS_P1;PMS_P2;Temp;Humidity;BMP_temperature;BMP_pressure;BME280_temperature;BME280_humidity;BME280_pressure;Samples;Min_cycle;Max_cycle;Signal;HPM_P1;HPM_P2
2022/07/02 00:00:16;;;;;;;6.10;4.28;;;16.90;99.90;;;;;;5049921;28;20029;-83
2022/07/02 00:02:43;;;;;;;5.43;3.95;;;16.90;99.90;;;;;;5077761;28;20082;-85
2022/07/02 00:05:12;;;;;;;5.10;4.07;;;16.90;99.90;;;;;;5064317;28;20037;-83
2022/07/02 00:07:38;;;;;;;5.10;4.22;;;16.80;99.90;;;;;;5043097;28;20507;-83
2022/07/02 00:10:03;;;;;;;7.88;4.40;;;16.90;99.90;;;;;;5048903;28;20028;-83
2022/07/02 00:12:29;;;;;;;5.10;4.22;;;16.90;99.90;;;;;;5046429;28;20040;-82
2022/07/02 00:14:57;;;;;;;6.07;3.70;;;16.90;99.90;;;;;;5084297;28;20040;-82
2022/07/02 00:17:22;;;;;;;4.93;4.00;;;16.90;99.90;;;;;;5054052;28;20081;-84
2022/07/02 00:19:52;;;;;;;4.15;3.75;;;16.80;99.90;;;;;;5050646;28;20029;-81
2022/07/02 00:22:18;;;;;;;6.25;4.57;;;16.80;99.90;;;;;;5044746;28;20035;-85
2022/07/02 00:24:44;;;;;;;4.50;4.10;;;16.90;99.90;;;;;;5041715;28;20463;-81
2022/07/02 00:27:12;;;;;;;4.85;3.70;;;16.90;99.90;;;;;;5046853;28;20056;-81
2022/07/02 00:30:03;;;;;;;4.55;3.83;;;16.90;99.90;;;;;;5085333;28;20036;-82
2022/07/02 00:32:31;;;;;;;4.72;4.13;;;16.90;99.90;;;;;;5056688;28;20040;-80
2022/07/02 00:34:58;;;;;;;8.57;4.22;;;17.00;99.90;;;;;;5058091;28;20036;-82
2022/07/02 00:37:26;;;;;;;5.97;3.88;;;17.00;99.90;;;;;;5066349;28;20040;-82
2022/07/02 00:39:53;;;;;;;4.93;3.08;;;17.10;99.90;;;;;;5048763;28;20051;-81
2022/07/02 00:42:20;;;;;;;4.53;3.55;;;17.00;99.90;;;;;;5062780;28;20052;-80
2022/07/02 00:44:47;;;;;;;5.55;3.42;;;17.10;99.90;;;;;;5079113;28;20474;-81
2022/07/02 00:47:14;;;;;;;4.50;3.22;;;17.10;99.90;;;;;;5042042;28;20043;-79
2022/07/02 00:49:39;;;;;;;5.22;3.72;;;17.10;99.90;;;;;;5046331;28;20107;-80
2022/07/02 00:52:07;;;;;;;4.85;3.40;;;17.10;99.90;;;;;;5065792;28;20050;-81
2022/07/02 00:54:33;;;;;;;4.57;3.35;;;17.10;99.90;;;;;;5043052;28;20040;-81
2022/07/02 00:56:58;;;;;;;5.72;3.60;;;17.20;99.90;;;;;;5047403;28;20034;-80
2022/07/02 00:59:25;;;;;;;5.72;4.05;;;17.20;99.90;;;;;;5051192;28;20025;-80
2022/07/02 01:01:51;;;;;;;5.82;3.50;;;17.20;99.90;;;;;;5046482;28;20032;-79
2022/07/02 01:04:18;;;;;;;4.63;2.83;;;17.20;99.90;;;;;;5064584;28;20086;-80
2022/07/02 01:06:44;;;;;;;5.18;3.50;;;17.20;99.90;;;;;;5054604;28;20123;-81
2022/07/02 01:12:01;;;;;;;3.97;3.00;;;17.20;99.90;;;;;;5067036;28;20159;-80
2022/07/02 01:14:28;;;;;;;3.35;3.05;;;17.20;99.90;;;;;;5047885;28;20037;-80
2022/07/02 01:16:54;;;;;;;5.20;3.08;;;17.20;99.90;;;;;;5057247;28;20029;-81
2022/07/02 01:19:20;;;;;;;3.42;2.97;;;17.10;99.90;;;;;;5094533;28;20119;-82
2022/07/02 01:22:09;;;;;;;3.83;3.03;;;17.10;99.90;;;;;;5049282;28;20028;-80
2022/07/02 01:24:35;;;;;;;4.63;3.42;;;17.10;99.90;;;;;;5047362;28;20035;-85
2022/07/02 01:27:00;;;;;;;2.97;2.67;;;17.10;99.90;;;;;;5054452;28;20470;-83
2022/07/02 01:29:26;;;;;;;4.05;3.38;;;17.00;99.90;;;;;;5091881;28;20024;-81
2022/07/02 01:31:51;;;;;;;5.13;3.40;;;16.90;99.90;;;;;;5047926;28;20458;-82
2022/07/02 01:34:17;;;;;;;3.45;3.05;;;16.90;99.90;;;;;;5047994;28;20079;-84
2022/07/02 01:36:42;;;;;;;6.45;3.60;;;16.90;99.90;;;;;;5052193;28;20035;-83
2022/07/02 01:39:08;;;;;;;4.88;2.70;;;16.90;99.90;;;;;;5061102;28;20032;-83
2022/07/02 01:41:39;;;;;;;3.55;3.25;;;16.90;99.90;;;;;;5054654;28;20040;-84
2022/07/02 01:44:08;;;;;;;5.15;2.90;;;16.90;99.90;;;;;;5065856;28;20406;-79
2022/07/02 01:46:34;;;;;;;4.03;3.35;;;16.80;99.90;;;;;;5079665;28;20032;-83
2022/07/02 01:49:00;;;;;;;4.07;3.28;;;16.80;99.90;;;;;;5054342;28;20033;-82
2022/07/02 01:51:26;;;;;;;6.80;3.20;;;16.80;99.90;;;;;;5080365;28;20096;-81
2022/07/02 01:53:51;;;;;;;4.25;2.70;;;16.70;99.90;;;;;;5059868;28;20393;-80
2022/07/02 01:56:17;;;;;;;3.17;2.63;;;16.70;99.90;;;;;;5056705;28;20028;-84
2022/07/02 01:58:43;;;;;;;4.47;3.08;;;16.70;99.90;;;;;;5058634;28;20367;-83
2022/07/02 02:01:09;;;;;;;3.53;2.70;;;16.70;99.90;;;;;;5061088;28;20115;-83
2022/07/02 02:03:34;;;;;;;4.55;3.00;;;16.60;99.90;;;;;;5080357;28;20107;-81
2022/07/02 02:06:00;;;;;;;4.03;2.83;;;16.60;99.90;;;;;;5065930;28;20036;-84
2022/07/02 02:08:25;;;;;;;3.53;2.72;;;16.60;99.90;;;;;;5054909;28;20055;-82
2022/07/02 02:10:51;;;;;;;5.47;2.65;;;16.60;99.90;;;;;;5046985;28;20443;-79
2022/07/02 02:13:16;;;;;;;4.10;3.05;;;16.60;99.90;;;;;;5068209;28;20054;-83
2022/07/02 02:15:42;;;;;;;3.95;3.13;;;16.60;99.90;;;;;;5056830;28;20028;-82
2022/07/02 02:18:08;;;;;;;3.45;2.72;;;16.60;99.90;;;;;;5053239;28;20036;-84
2022/07/02 02:20:34;;;;;;;2.95;2.65;;;16.60;99.90;;;;;;5087847;28;20541;-81
2022/07/02 02:23:01;;;;;;;6.78;2.97;;;16.60;99.90;;;;;;5070329;28;20044;-83
2022/07/02 02:25:26;;;;;;;2.70;2.50;;;16.60;99.90;;;;;;5051660;28;20037;-84
2022/07/02 02:27:52;;;;;;;3.30;2.90;;;16.60;99.90;;;;;;5063734;28;20107;-81
2022/07/02 02:30:18;;;;;;;3.92;2.78;;;16.60;99.90;;;;;;5056433;28;20037;-81
2022/07/02 02:32:43;;;;;;;9.23;3.10;;;16.50;99.90;;;;;;5048800;28;20029;-80
2022/07/02 02:35:09;;;;;;;2.53;2.33;;;16.50;99.90;;;;;;5067590;28;20107;-82
2022/07/02 02:37:34;;;;;;;3.55;2.58;;;16.50;99.90;;;;;;5085418;28;20394;-84
2022/07/02 02:40:00;;;;;;;4.15;2.42;;;16.50;99.90;;;;;;5047324;28;20032;-81
2022/07/02 02:42:25;;;;;;;2.75;2.33;;;16.50;99.90;;;;;;5049518;28;20033;-82
2022/07/02 02:44:51;;;;;;;6.75;2.60;;;16.50;99.90;;;;;;5070808;28;20029;-82
2022/07/02 02:47:16;;;;;;;3.63;2.47;;;16.50;99.90;;;;;;5048677;28;20029;-81
2022/07/02 02:49:42;;;;;;;5.80;2.67;;;16.50;99.90;;;;;;5052128;28;20024;-81
2022/07/02 02:52:07;;;;;;;2.83;2.58;;;16.40;99.90;;;;;;5051484;28;20052;-81
2022/07/02 02:54:33;;;;;;;5.82;3.30;;;16.40;99.90;;;;;;5067916;28;20040;-82
2022/07/02 02:56:58;;;;;;;7.65;2.50;;;16.40;99.90;;;;;;5042420;28;20497;-82
2022/07/02 02:59:24;;;;;;;4.75;2.50;;;16.40;99.90;;;;;;5053179;28;20037;-81
2022/07/02 03:01:49;;;;;;;4.53;2.20;;;16.30;99.90;;;;;;5051577;28;20041;-84
2022/07/02 03:04:15;;;;;;;10.18;3.08;;;16.30;99.90;;;;;;5050241;28;20038;-82
2022/07/02 03:06:40;;;;;;;2.90;2.28;;;16.30;99.90;;;;;;5077760;28;20430;-85
2022/07/02 03:09:06;;;;;;;3.00;2.50;;;16.30;99.90;;;;;;5081906;28;20036;-83
2022/07/02 03:11:32;;;;;;;5.15;2.58;;;16.30;99.90;;;;;;5053306;28;20020;-81
2022/07/02 03:13:58;;;;;;;6.75;2.90;;;16.30;99.90;;;;;;5069695;28;20029;-81
2022/07/02 03:16:24;;;;;;;6.55;2.78;;;16.30;99.90;;;;;;5059184;28;20126;-84
2022/07/02 03:18:49;;;;;;;4.85;3.08;;;16.30;99.90;;;;;;5074998;28;20040;-81
2022/07/02 03:21:15;;;;;;;3.35;2.85;;;16.20;99.90;;;;;;5051547;28;20111;-79
2022/07/02 03:23:40;;;;;;;3.50;2.42;;;16.20;99.90;;;;;;5038528;28;20039;-79
2022/07/02 03:26:06;;;;;;;2.85;2.33;;;16.20;99.90;;;;;;5053604;28;20113;-82
2022/07/02 03:28:31;;;;;;;6.80;2.65;;;16.20;99.90;;;;;;5057990;28;20654;-82
2022/07/02 03:30:57;;;;;;;4.53;3.08;;;16.20;99.90;;;;;;5070955;28;20031;-83
2022/07/02 03:33:22;;;;;;;7.20;2.53;;;16.20;99.90;;;;;;5058196;28;20501;-83
2022/07/02 03:35:48;;;;;;;5.93;2.35;;;16.20;99.90;;;;;;5042799;28;20028;-82
2022/07/02 03:38:14;;;;;;;3.65;2.60;;;16.20;99.90;;;;;;5035612;28;20039;-84
2022/07/02 03:40:39;;;;;;;3.35;2.20;;;16.20;99.90;;;;;;5042396;28;20032;-80
2022/07/02 03:43:05;;;;;;;4.57;2.95;;;16.20;99.90;;;;;;5059846;28;20115;-80
2022/07/02 03:45:30;;;;;;;2.38;2.17;;;16.20;99.90;;;;;;5070677;28;20417;-81
2022/07/02 03:47:56;;;;;;;4.85;2.58;;;16.20;99.90;;;;;;5047385;28;20036;-85
2022/07/02 03:50:21;;;;;;;8.25;2.53;;;16.30;99.90;;;;;;5045052;28;20458;-82
2022/07/02 03:52:47;;;;;;;3.42;2.58;;;16.30;99.90;;;;;;5059949;28;20504;-81
2022/07/02 03:55:13;;;;;;;7.45;2.72;;;16.30;99.90;;;;;;5059286;28;20054;-80
2022/07/02 03:57:38;;;;;;;3.80;2.47;;;16.30;99.90;;;;;;5061537;28;21018;-80
2022/07/02 04:00:05;;;;;;;4.60;3.33;;;16.30;99.90;;;;;;5041046;28;20040;-81
2022/07/02 04:02:31;;;;;;;3.53;2.53;;;16.30;99.90;;;;;;5074812;28;20029;-83
2022/07/02 04:04:57;;;;;;;3.40;2.88;;;16.30;99.90;;;;;;5047069;28;20043;-83
2022/07/02 04:07:22;;;;;;;2.85;2.50;;;16.40;99.90;;;;;;5050554;28;20039;-85
2022/07/02 04:09:48;;;;;;;4.35;2.50;;;16.30;99.90;;;;;;5059194;28;20029;-83
2022/07/02 04:12:13;;;;;;;4.28;3.88;;;16.40;99.90;;;;;;5060991;28;20047;-82
2022/07/02 04:14:40;;;;;;;4.70;2.88;;;16.40;99.90;;;;;;5068235;28;20021;-82
2022/07/02 04:17:05;;;;;;;2.90;2.47;;;16.40;99.90;;;;;;5066828;28;20040;-82
2022/07/02 04:19:31;;;;;;;7.18;2.47;;;16.40;99.90;;;;;;5046717;28;20039;-81
2022/07/02 04:21:56;;;;;;;7.20;2.83;;;16.40;99.90;;;;;;5062401;28;20033;-81
2022/07/02 04:24:22;;;;;;;6.00;2.97;;;16.50;99.90;;;;;;5058922;28;20047;-80
2022/07/02 04:26:47;;;;;;;3.50;2.80;;;16.50;99.90;;;;;;5059488;28;20035;-81
2022/07/02 04:29:13;;;;;;;6.95;2.42;;;16.50;99.90;;;;;;5059188;28;20047;-81
2022/07/02 04:31:39;;;;;;;3.38;2.30;;;16.60;99.90;;;;;;5039171;28;20071;-82
2022/07/02 04:34:04;;;;;;;4.47;2.53;;;16.50;99.90;;;;;;5053838;28;20028;-82
2022/07/02 04:36:30;;;;;;;10.48;2.50;;;16.60;99.90;;;;;;5060972;28;20051;-82
2022/07/02 04:38:55;;;;;;;4.57;2.50;;;16.60;99.90;;;;;;5059656;28;20035;-82
2022/07/02 04:41:21;;;;;;;3.65;2.10;;;16.60;99.90;;;;;;5047406;28;20033;-85
2022/07/02 04:43:46;;;;;;;5.30;2.58;;;16.60;99.90;;;;;;5052944;28;20115;-82
2022/07/02 04:46:12;;;;;;;5.28;2.90;;;16.70;99.90;;;;;;5048645;28;20107;-81
2022/07/02 04:48:37;;;;;;;4.47;2.40;;;16.80;99.90;;;;;;5058136;28;20047;-82
2022/07/02 04:51:03;;;;;;;8.63;3.40;;;16.80;99.90;;;;;;5047417;28;20108;-82
2022/07/02 04:53:28;;;;;;;5.32;2.33;;;16.80;99.90;;;;;;5050386;28;20505;-81
2022/07/02 04:55:54;;;;;;;9.02;2.10;;;16.80;99.90;;;;;;5066945;28;20495;-83
2022/07/02 04:58:19;;;;;;;7.78;2.05;;;16.90;99.90;;;;;;5054049;28;20044;-82
2022/07/02 05:00:45;;;;;;;2.30;1.70;;;16.90;99.90;;;;;;5035846;28;20597;-81
2022/07/02 05:03:10;;;;;;;2.38;2.00;;;17.00;99.90;;;;;;5054416;28;20111;-82
2022/07/02 05:05:36;;;;;;;6.57;2.35;;;17.00;99.90;;;;;;5067874;28;20028;-82
2022/07/02 05:08:01;;;;;;;7.13;1.90;;;17.00;99.90;;;;;;5046211;28;20044;-82
2022/07/02 05:10:27;;;;;;;3.83;1.88;;;17.10;99.90;;;;;;5039902;28;20105;-82
2022/07/02 05:12:52;;;;;;;4.65;1.92;;;17.10;99.90;;;;;;5040333;28;20377;-81
2022/07/02 05:15:18;;;;;;;3.03;2.00;;;17.20;99.90;;;;;;5050819;28;20043;-81
2022/07/02 05:17:44;;;;;;;4.85;1.92;;;17.20;99.90;;;;;;5074278;28;20482;-83
2022/07/02 05:20:09;;;;;;;4.57;1.77;;;17.30;99.90;;;;;;5050904;28;20500;-83
2022/07/02 05:22:35;;;;;;;8.52;1.60;;;17.30;99.70;;;;;;5060966;28;20027;-84
2022/07/02 05:25:00;;;;;;;6.13;1.67;;;17.30;99.70;;;;;;5046729;28;20035;-82
2022/07/02 05:27:26;;;;;;;5.22;1.75;;;17.30;99.60;;;;;;5059204;28;20036;-82
2022/07/02 05:29:51;;;;;;;4.85;2.10;;;17.40;99.20;;;;;;5074451;28;20470;-84
2022/07/02 05:32:17;;;;;;;4.50;2.00;;;17.50;99.20;;;;;;5052270;28;20028;-82
2022/07/02 05:34:42;;;;;;;3.00;1.40;;;17.50;99.00;;;;;;5056713;28;20084;-85
2022/07/02 05:37:08;;;;;;;4.57;2.58;;;17.60;98.80;;;;;;5078726;28;20462;-86
2022/07/02 05:39:33;;;;;;;7.22;1.80;;;17.70;98.80;;;;;;5085769;28;20027;-82
2022/07/02 05:41:59;;;;;;;2.78;1.85;;;17.70;98.70;;;;;;5072371;28;20036;-77
2022/07/02 05:44:24;;;;;;;2.05;1.70;;;17.80;99.00;;;;;;5049213;28;20021;-80
2022/07/02 05:46:50;;;;;;;1.98;1.70;;;17.90;98.40;;;;;;5060538;28;20059;-78
2022/07/02 05:49:15;;;;;;;4.10;1.45;;;18.00;98.40;;;;;;5066096;28;20451;-78
2022/07/02 05:51:41;;;;;;;2.40;1.15;;;18.00;98.70;;;;;;5054802;28;20062;-79
2022/07/02 05:54:06;;;;;;;5.95;2.17;;;18.10;98.10;;;;;;5066611;28;20059;-81
2022/07/02 05:56:31;;;;;;;2.28;1.60;;;18.20;98.30;;;;;;5075235;28;20698;-81
2022/07/02 05:58:57;;;;;;;3.50;1.30;;;18.20;97.80;;;;;;5051732;28;20107;-81
2022/07/02 06:01:22;;;;;;;4.22;1.52;;;18.40;97.60;;;;;;5056175;28;20390;-81
2022/07/02 06:03:48;;;;;;;3.22;1.98;;;18.40;97.40;;;;;;5067096;28;20426;-80
2022/07/02 06:08:58;;;;;;;3.58;1.65;;;18.50;97.30;;;;;;5061271;28;20039;-80
2022/07/02 06:11:23;;;;;;;2.83;1.73;;;18.60;96.80;;;;;;5073376;28;20474;-80
2022/07/02 06:13:49;;;;;;;1.70;1.42;;;18.60;96.60;;;;;;5061855;28;20105;-79
2022/07/02 06:16:14;;;;;;;2.30;1.60;;;18.70;96.50;;;;;;5082411;28;20488;-78
2022/07/02 06:18:40;;;;;;;1.80;1.20;;;18.80;96.50;;;;;;5067594;28;20090;-81
2022/07/02 06:21:05;;;;;;;3.03;1.63;;;18.80;96.50;;;;;;5067619;28;20028;-79
2022/07/02 06:23:31;;;;;;;1.75;1.30;;;18.90;96.40;;;;;;5070257;28;20024;-80
2022/07/02 06:25:56;;;;;;;4.68;1.58;;;19.10;96.30;;;;;;5051432;28;20032;-80
2022/07/02 06:28:22;;;;;;;1.15;0.90;;;19.10;96.10;;;;;;5074404;28;20120;-81
2022/07/02 06:30:47;;;;;;;1.73;0.80;;;19.40;95.90;;;;;;5071469;28;20370;-81
2022/07/02 06:33:13;;;;;;;1.60;1.05;;;19.70;95.40;;;;;;5080610;28;20459;-80
2022/07/02 06:35:40;;;;;;;2.22;1.15;;;19.90;94.80;;;;;;5072491;28;20466;-81
2022/07/02 06:38:06;;;;;;;1.95;1.15;;;20.00;95.10;;;;;;5073009;28;20160;-81
2022/07/02 06:40:32;;;;;;;3.50;1.17;;;20.10;95.10;;;;;;5068581;28;20084;-80
2022/07/02 06:42:58;;;;;;;4.95;1.50;;;20.20;94.60;;;;;;5071983;28;20055;-80
2022/07/02 06:45:23;;;;;;;4.70;1.00;;;20.30;93.60;;;;;;5071886;28;20036;-80
2022/07/02 06:47:49;;;;;;;4.57;1.00;;;20.30;93.90;;;;;;5055742;28;20035;-80
2022/07/02 06:50:18;;;;;;;2.33;1.10;;;20.20;93.90;;;;;;5062817;28;20025;-82
2022/07/02 06:52:45;;;;;;;4.93;1.73;;;20.30;93.80;;;;;;5080639;28;20086;-82
2022/07/02 06:55:12;;;;;;;3.72;0.88;;;20.30;93.70;;;;;;5079837;28;20547;-79
2022/07/02 06:57:37;;;;;;;3.65;1.33;;;20.40;93.70;;;;;;5071792;28;20063;-79
2022/07/02 07:00:04;;;;;;;1.42;0.70;;;20.40;93.80;;;;;;5053027;28;20454;-79
2022/07/02 07:02:30;;;;;;;1.23;1.00;;;20.50;93.90;;;;;;5068791;28;20748;-79
2022/07/02 07:04:56;;;;;;;5.32;1.23;;;20.60;93.30;;;;;;5069936;28;20044;-80
2022/07/02 07:07:27;;;;;;;1.45;0.98;;;20.70;93.40;;;;;;5053812;28;20545;-80
2022/07/02 07:09:54;;;;;;;1.23;1.00;;;20.70;92.90;;;;;;5071479;28;20020;-79
2022/07/02 07:12:20;;;;;;;3.53;1.33;;;20.80;92.70;;;;;;5070495;28;20071;-80
2022/07/02 07:14:45;;;;;;;4.53;1.17;;;20.90;92.70;;;;;;5074092;28;20060;-80
2022/07/02 07:17:11;;;;;;;2.17;0.88;;;21.00;92.70;;;;;;5074220;28;20041;-80
2022/07/02 07:19:36;;;;;;;2.25;1.40;;;21.10;92.80;;;;;;5076046;28;20033;-81
2022/07/02 07:22:02;;;;;;;1.40;0.98;;;21.20;92.10;;;;;;5076369;28;20386;-80
2022/07/02 07:24:28;;;;;;;2.05;1.13;;;21.30;91.90;;;;;;5059575;28;20524;-79
2022/07/02 07:26:53;;;;;;;1.85;1.08;;;21.40;92.10;;;;;;5059350;28;20025;-77
2022/07/02 07:29:19;;;;;;;2.47;0.80;;;21.60;91.20;;;;;;5060504;28;20390;-79
2022/07/02 07:31:44;;;;;;;1.60;0.98;;;21.70;91.00;;;;;;5060188;28;20033;-80
2022/07/02 07:34:10;;;;;;;3.08;1.05;;;21.70;91.00;;;;;;5057901;28;20078;-78
2022/07/02 07:36:36;;;;;;;1.77;1.02;;;21.80;91.00;;;;;;5054957;28;20502;-79
2022/07/02 07:39:02;;;;;;;3.50;1.42;;;21.90;91.30;;;;;;5054615;28;20119;-80
2022/07/02 07:41:28;;;;;;;6.68;1.83;;;22.00;90.70;;;;;;5035527;28;20033;-80
2022/07/02 07:43:54;;;;;;;5.35;1.00;;;22.10;90.20;;;;;;5035334;28;20051;-81
2022/07/02 07:46:20;;;;;;;1.50;1.10;;;22.20;90.60;;;;;;5052098;28;20080;-81
2022/07/02 07:48:46;;;;;;;1.75;0.88;;;22.30;89.80;;;;;;5051986;28;20017;-81
2022/07/02 07:51:13;;;;;;;2.72;0.90;;;22.40;90.00;;;;;;5067384;28;20032;-80
2022/07/02 07:53:39;;;;;;;2.58;1.45;;;22.60;90.50;;;;;;5058803;28;20085;-82
2022/07/02 07:56:04;;;;;;;2.58;1.20;;;22.70;90.40;;;;;;5071512;28;20028;-80
2022/07/02 07:58:30;;;;;;;1.85;0.90;;;22.80;90.20;;;;;;5072594;28;20044;-82
2022/07/02 08:00:55;;;;;;;3.83;0.88;;;23.00;90.30;;;;;;5074223;28;20103;-79
2022/07/02 08:03:21;;;;;;;2.50;0.90;;;23.10;90.10;;;;;;5072313;28;20791;-80
2022/07/02 08:05:47;;;;;;;1.17;0.70;;;23.30;87.50;;;;;;5070794;28;20029;-79
2022/07/02 08:08:13;;;;;;;1.20;0.70;;;23.50;87.60;;;;;;5053055;28;20386;-80
2022/07/02 08:10:39;;;;;;;3.67;1.00;;;23.60;86.10;;;;;;5071596;28;20453;-80
2022/07/02 08:13:05;;;;;;;1.90;0.80;;;23.70;85.00;;;;;;5072546;28;20039;-80
2022/07/02 08:15:30;;;;;;;3.05;1.23;;;23.90;84.40;;;;;;5071866;28;20032;-80
2022/07/02 08:17:56;;;;;;;4.18;0.80;;;24.00;83.80;;;;;;5053441;28;20028;-82
2022/07/02 08:20:21;;;;;;;2.22;0.70;;;24.20;83.90;;;;;;5072659;28;20035;-80
2022/07/02 08:22:47;;;;;;;3.00;0.90;;;24.30;81.80;;;;;;5054787;28;20024;-81
2022/07/02 08:25:15;;;;;;;1.95;0.65;;;24.30;81.60;;;;;;5052097;28;20063;-84
2022/07/02 08:27:45;;;;;;;6.03;0.60;;;24.50;78.40;;;;;;5052475;28;20029;-80
2022/07/02 08:30:12;;;;;;;3.50;1.25;;;24.50;79.90;;;;;;5070616;28;20031;-81
2022/07/02 08:32:38;;;;;;;1.65;0.80;;;24.60;79.40;;;;;;5070694;28;20044;-80
2022/07/02 08:35:04;;;;;;;2.90;1.10;;;24.60;80.80;;;;;;5052832;28;20128;-79
2022/07/02 08:37:30;;;;;;;0.60;0.40;;;24.70;76.40;;;;;;5071200;28;20036;-80
2022/07/02 08:39:56;;;;;;;0.70;0.50;;;24.80;78.50;;;;;;5070854;28;20040;-83
2022/07/02 08:42:27;;;;;;;2.83;0.75;;;24.90;78.40;;;;;;5071512;28;20032;-81
2022/07/02 08:44:53;;;;;;;2.67;0.63;;;25.10;78.90;;;;;;5053077;28;20033;-78
2022/07/02 08:47:20;;;;;;;1.00;0.40;;;25.30;73.30;;;;;;5070183;28;20063;-83
2022/07/02 08:49:47;;;;;;;2.05;0.70;;;25.30;74.40;;;;;;5053321;28;20414;-80
2022/07/02 08:52:18;;;;;;;3.42;0.73;;;25.40;75.50;;;;;;5052514;28;20063;-86
2022/07/02 08:54:45;;;;;;;0.70;0.50;;;25.40;76.50;;;;;;5071736;28;20032;-82
2022/07/02 08:57:12;;;;;;;1.65;0.52;;;25.40;73.40;;;;;;5052265;28;20146;-80
2022/07/02 08:59:38;;;;;;;1.05;0.40;;;25.50;72.70;;;;;;5053854;28;20028;-83
2022/07/02 09:02:05;;;;;;;1.35;0.47;;;25.60;70.30;;;;;;5069917;28;20359;-79
2022/07/02 09:04:33;;;;;;;5.43;0.50;;;25.60;71.70;;;;;;5070025;28;20033;-83
2022/07/02 09:07:02;;;;;;;3.53;0.70;;;25.70;72.50;;;;;;5069303;28;20032;-80
2022/07/02 09:09:29;;;;;;;1.85;0.77;;;25.80;74.50;;;;;;5052128;28;20067;-83
2022/07/02 09:11:56;;;;;;;1.77;0.52;;;25.90;71.20;;;;;;5070206;28;20033;-80
2022/07/02 09:14:22;;;;;;;1.08;0.60;;;26.00;69.60;;;;;;5052353;28;20032;-79
2022/07/02 09:16:48;;;;;;;0.63;0.38;;;26.10;67.00;;;;;;5069573;28;20505;-79
2022/07/02 09:19:15;;;;;;;0.85;0.50;;;26.30;70.80;;;;;;5052443;28;20025;-79
2022/07/02 09:21:41;;;;;;;1.35;0.60;;;26.40;70.10;;;;;;5051654;28;20119;-84
2022/07/02 09:24:07;;;;;;;4.13;0.52;;;26.60;68.00;;;;;;5070295;28;20029;-80
2022/07/02 09:26:32;;;;;;;9.95;1.98;;;26.80;67.70;;;;;;5051096;28;20028;-85
2022/07/02 09:29:00;;;;;;;1.23;0.45;;;26.70;64.70;;;;;;5052464;28;20028;-79
2022/07/02 09:31:46;;;;;;;3.63;0.50;;;26.60;65.10;;;;;;5051787;28;20029;-85
2022/07/02 09:34:23;;;;;;;1.80;0.60;;;26.60;66.60;;;;;;5070545;28;20082;-79
2022/07/02 09:36:48;;;;;;;2.03;0.70;;;26.50;68.60;;;;;;5051793;28;20418;-85
2022/07/02 09:39:14;;;;;;;3.22;0.55;;;26.60;67.30;;;;;;5069889;28;20039;-84
2022/07/02 09:41:43;;;;;;;1.73;0.50;;;26.50;67.90;;;;;;5052308;28;20033;-79
2022/07/02 09:44:11;;;;;;;2.20;0.50;;;26.40;72.30;;;;;;5070341;28;20024;-80
2022/07/02 09:46:43;;;;;;;2.05;0.50;;;26.50;70.50;;;;;;5052035;28;20041;-80
2022/07/02 09:49:09;;;;;;;0.43;0.40;;;26.60;67.30;;;;;;5052652;28;20033;-79
2022/07/02 09:51:52;;;;;;;0.63;0.47;;;26.80;64.50;;;;;;5070884;28;20425;-85
2022/07/02 09:54:19;;;;;;;1.45;0.60;;;26.90;61.90;;;;;;5052440;28;20056;-82
2022/07/02 09:56:56;;;;;;;3.33;0.50;;;27.00;61.20;;;;;;5052196;28;20082;-79
2022/07/02 09:59:22;;;;;;;1.10;0.40;;;27.10;62.50;;;;;;5070327;28;20040;-85
2022/07/02 10:01:48;;;;;;;3.95;0.50;;;27.20;63.40;;;;;;5051280;28;20052;-79
2022/07/02 10:04:14;;;;;;;0.88;0.55;;;27.40;64.90;;;;;;5051621;28;20469;-84
2022/07/02 10:06:42;;;;;;;1.92;0.40;;;27.60;59.10;;;;;;5068793;28;20028;-81
2022/07/02 10:09:08;;;;;;;0.77;0.40;;;27.70;59.40;;;;;;5051387;28;20043;-80
2022/07/02 10:11:36;;;;;;;0.73;0.30;;;27.80;61.90;;;;;;5069574;28;20047;-84
2022/07/02 10:14:04;;;;;;;4.20;0.40;;;27.90;59.60;;;;;;5070258;28;20021;-79
2022/07/02 10:16:30;;;;;;;2.28;0.50;;;28.00;60.10;;;;;;5052126;28;20039;-80
2022/07/02 10:18:58;;;;;;;2.28;0.55;;;28.00;62.00;;;;;;5088649;28;20466;-80
2022/07/02 10:21:24;;;;;;;2.70;0.47;;;28.10;61.00;;;;;;5073820;28;20024;-79
2022/07/02 10:23:51;;;;;;;0.82;0.40;;;28.20;65.00;;;;;;5055254;28;20415;-80
2022/07/02 10:26:17;;;;;;;0.85;0.35;;;28.30;60.60;;;;;;5054122;28;20032;-82
2022/07/02 10:28:43;;;;;;;1.95;0.60;;;28.40;59.00;;;;;;5055343;28;20036;-81
2022/07/02 10:31:17;;;;;;;2.22;0.47;;;28.60;57.70;;;;;;5072903;28;20028;-80
2022/07/02 10:34:13;;;;;;;0.98;0.50;;;28.70;63.40;;;;;;5073352;28;20397;-79
2022/07/02 10:36:38;;;;;;;0.50;0.30;;;28.80;58.00;;;;;;5072211;28;20089;-81
2022/07/02 10:39:06;;;;;;;1.42;0.47;;;28.70;59.00;;;;;;5073390;28;20115;-79
2022/07/02 10:41:32;;;;;;;1.00;0.52;;;28.50;56.90;;;;;;5072962;28;20042;-80
2022/07/02 10:43:59;;;;;;;1.30;0.57;;;28.50;57.50;;;;;;5055865;28;20536;-81
2022/07/02 10:46:26;;;;;;;3.40;0.32;;;28.40;58.60;;;;;;5054440;28;20041;-81
2022/07/02 10:48:54;;;;;;;3.22;0.43;;;28.40;59.20;;;;;;5073898;28;20040;-79
2022/07/02 10:51:22;;;;;;;0.57;0.30;;;28.60;57.50;;;;;;5055116;28;20496;-79
2022/07/02 10:53:52;;;;;;;1.90;0.50;;;28.80;58.60;;;;;;5056684;28;20490;-85
2022/07/02 10:56:18;;;;;;;3.20;0.40;;;29.00;56.40;;;;;;5071870;28;20127;-80
2022/07/02 10:58:44;;;;;;;1.25;0.30;;;29.00;56.30;;;;;;5073746;28;20117;-80
2022/07/02 11:01:14;;;;;;;2.42;0.50;;;29.00;56.50;;;;;;5072011;28;20074;-80
2022/07/02 11:04:02;;;;;;;0.60;0.30;;;28.80;55.50;;;;;;5052763;28;20636;-83
2022/07/02 11:06:29;;;;;;;0.90;0.38;;;28.40;55.70;;;;;;5078648;28;20082;-79
2022/07/02 11:08:57;;;;;;;5.18;0.50;;;28.20;55.50;;;;;;5072419;28;20029;-79
2022/07/02 11:11:35;;;;;;;0.60;0.30;;;28.20;59.00;;;;;;5072007;28;20516;-82
2022/07/02 11:14:04;;;;;;;0.88;0.40;;;28.30;56.90;;;;;;5054058;28;20067;-80
2022/07/02 11:16:37;;;;;;;0.40;0.30;;;28.50;58.20;;;;;;5071586;28;20035;-81
2022/07/02 11:19:04;;;;;;;0.65;0.45;;;28.80;55.80;;;;;;5072494;28;20046;-80
2022/07/02 11:21:30;;;;;;;1.23;0.40;;;29.10;58.40;;;;;;5072094;28;20021;-84
2022/07/02 11:23:56;;;;;;;0.85;0.45;;;29.30;58.00;;;;;;5054500;28;20115;-81
2022/07/02 11:26:24;;;;;;;0.80;0.32;;;29.60;57.50;;;;;;5053665;28;20041;-81
2022/07/02 11:28:51;;;;;;;0.82;0.40;;;29.70;53.00;;;;;;5071065;28;20471;-85
2022/07/02 11:31:17;;;;;;;4.68;0.60;;;29.60;53.70;;;;;;5071289;28;20024;-79
2022/07/02 11:33:55;;;;;;;1.35;0.80;;;29.70;54.80;;;;;;5053725;28;20021;-80
2022/07/02 11:36:22;;;;;;;1.67;0.50;;;29.80;56.40;;;;;;5053002;28;20037;-80
2022/07/02 11:38:49;;;;;;;1.52;0.82;;;30.00;55.70;;;;;;5071373;28;20048;-83
2022/07/02 11:41:20;;;;;;;0.75;0.30;;;30.10;57.80;;;;;;5071580;28;20024;-81
2022/07/02 11:43:51;;;;;;;0.82;0.30;;;30.30;54.50;;;;;;5071853;28;20439;-79
2022/07/02 11:46:19;;;;;;;2.33;0.40;;;30.40;53.60;;;;;;5052655;28;20035;-79
2022/07/02 11:48:46;;;;;;;0.77;0.40;;;30.40;54.80;;;;;;5072141;28;20027;-82
2022/07/02 11:51:12;;;;;;;2.25;0.47;;;30.40;57.60;;;;;;5052844;28;20086;-80
2022/07/02 11:53:37;;;;;;;1.05;0.68;;;30.50;52.60;;;;;;5053554;28;20025;-80
2022/07/02 11:56:08;;;;;;;1.63;0.40;;;30.50;58.30;;;;;;5070491;28;20059;-80
2022/07/02 11:58:45;;;;;;;0.80;0.47;;;30.60;53.60;;;;;;5071798;28;20036;-80
2022/07/02 12:01:25;;;;;;;0.52;0.32;;;30.60;52.10;;;;;;5070846;28;20421;-83
2022/07/02 12:03:56;;;;;;;0.70;0.40;;;30.50;53.30;;;;;;5060661;28;20037;-79
2022/07/02 12:06:24;;;;;;;1.25;0.45;;;30.20;52.40;;;;;;5052925;28;20032;-84
2022/07/02 12:08:55;;;;;;;3.03;0.82;;;29.90;53.90;;;;;;5053827;28;20020;-79
2022/07/02 12:11:22;;;;;;;1.33;0.40;;;29.60;54.30;;;;;;5070735;28;20439;-79
2022/07/02 12:13:48;;;;;;;0.85;0.30;;;29.40;53.20;;;;;;5071616;28;20532;-78
2022/07/02 12:16:16;;;;;;;2.30;0.38;;;29.20;55.90;;;;;;5070456;28;20584;-86
2022/07/02 12:18:41;;;;;;;0.95;0.40;;;29.20;55.60;;;;;;5052859;28;20040;-80
2022/07/02 12:21:09;;;;;;;1.02;0.30;;;29.40;55.50;;;;;;5070330;28;20429;-80
2022/07/02 12:23:48;;;;;;;1.77;0.40;;;29.60;59.00;;;;;;5070733;28;20078;-81
2022/07/02 12:26:24;;;;;;;3.47;0.40;;;29.90;59.40;;;;;;5070222;28;20036;-79
2022/07/02 12:31:50;;;;;;;0.40;0.30;;;30.70;57.10;;;;;;5070681;28;20032;-82
2022/07/02 12:34:18;;;;;;;2.88;0.55;;;31.10;55.40;;;;;;5052713;28;20029;-86
2022/07/02 12:36:57;;;;;;;0.98;0.30;;;31.10;52.60;;;;;;5052102;28;20485;-82
2022/07/02 12:39:41;;;;;;;1.50;0.30;;;31.10;54.30;;;;;;5071209;28;20078;-83
2022/07/02 12:42:14;;;;;;;1.63;0.30;;;31.00;51.40;;;;;;5070501;28;20066;-79
2022/07/02 12:44:59;;;;;;;0.98;0.55;;;30.70;51.60;;;;;;5053060;28;20031;-80
2022/07/02 12:47:28;;;;;;;0.60;0.40;;;30.40;53.10;;;;;;5052126;28;20035;-81
2022/07/02 12:49:56;;;;;;;0.57;0.30;;;30.20;52.80;;;;;;5052668;28;20032;-80
2022/07/02 12:52:22;;;;;;;0.95;0.30;;;30.20;52.00;;;;;;5069834;28;20125;-87
2022/07/02 12:54:47;;;;;;;2.28;0.40;;;30.20;52.70;;;;;;5069456;28;20078;-82